Time;durP1;ratioP1;P1;durP2;ratioP2;P2;SDS_P1;SDS_P2;PMS_P1;PMS_P2;Temp;Humidity;BMP_temperature;BMP_pressure;BME280_temperature;BME280_humidity;BME280_pressure;Samples;Min_cycle;Max_cycle;Signal;HPM_P1;HPM_P2
2022/05/01 00:01:57;;;;;;;19.13;12.05;;;8.50;99.90;;;;;;4986093;23;20039;-62
2022/05/01 00:04:23;;;;;;;17.13;12.02;;;8.40;99.90;;;;;;4962939;28;20028;-62
2022/05/01 00:06:48;;;;;;;16.10;11.15;;;8.40;99.90;;;;;;4968788;28;20058;-61
2022/05/01 00:09:14;;;;;;;18.10;12.32;;;8.40;99.90;;;;;;4974877;28;20070;-61
2022/05/01 00:11:41;;;;;;;17.13;11.65;;;8.40;99.90;;;;;;4967199;28;20043;-62
2022/05/01 00:14:06;;;;;;;17.63;11.45;;;8.40;99.90;;;;;;4944315;28;20118;-62
2022/05/01 00:16:32;;;;;;;18.05;11.90;;;8.40;99.90;;;;;;4947745;29;20126;-62
2022/05/01 00:18:57;;;;;;;19.92;12.40;;;8.40;99.90;;;;;;4954714;28;20086;-62
2022/05/01 00:21:23;;;;;;;18.05;11.43;;;8.40;99.90;;;;;;4955260;28;20039;-61
2022/05/01 00:23:48;;;;;;;20.50;12.77;;;8.40;99.90;;;;;;4943593;29;20042;-62
2022/05/01 00:26:14;;;;;;;18.70;12.05;;;8.40;99.90;;;;;;4941245;28;20043;-61
2022/05/01 00:28:39;;;;;;;20.40;12.63;;;8.40;99.90;;;;;;4955157;29;20031;-61
2022/05/01 00:31:07;;;;;;;21.00;12.90;;;8.40;99.90;;;;;;4952434;29;20402;-61
2022/05/01 00:36:28;;;;;;;19.70;12.73;;;8.40;99.90;;;;;;4949121;29;20099;-61
2022/05/01 00:39:03;;;;;;;20.25;12.73;;;8.40;99.90;;;;;;4955063;28;20039;-61
2022/05/01 00:41:31;;;;;;;23.55;12.93;;;8.40;99.90;;;;;;4952315;28;20047;-62
2022/05/01 00:44:03;;;;;;;19.35;13.05;;;8.40;99.90;;;;;;4949058;28;20046;-62
2022/05/01 00:46:33;;;;;;;18.45;12.57;;;8.40;99.90;;;;;;4954637;28;20047;-62
2022/05/01 00:49:04;;;;;;;18.15;12.02;;;8.40;99.90;;;;;;4946413;29;20039;-62
2022/05/01 00:51:32;;;;;;;19.57;13.43;;;8.40;99.90;;;;;;4947838;28;20122;-61
2022/05/01 00:53:58;;;;;;;18.45;12.68;;;8.40;99.90;;;;;;4953953;29;20410;-62
2022/05/01 00:56:25;;;;;;;20.23;13.43;;;8.30;99.90;;;;;;4950010;28;20039;-61
2022/05/01 00:58:50;;;;;;;19.80;13.70;;;8.40;99.90;;;;;;4941838;29;20398;-62
2022/05/01 01:01:18;;;;;;;22.20;13.95;;;8.30;99.90;;;;;;4954125;28;20541;-62
2022/05/01 01:03:44;;;;;;;20.13;13.10;;;8.30;99.90;;;;;;4952901;29;20162;-62
2022/05/01 01:06:10;;;;;;;23.85;13.60;;;8.20;99.90;;;;;;4939285;28;20486;-61
2022/05/01 01:08:36;;;;;;;20.25;13.63;;;8.20;99.90;;;;;;4945732;29;20045;-62
2022/05/01 01:11:02;;;;;;;17.88;12.75;;;8.20;99.90;;;;;;4954651;28;20039;-61
2022/05/01 01:13:29;;;;;;;24.58;13.50;;;8.20;99.90;;;;;;4952787;28;20035;-62
2022/05/01 01:15:55;;;;;;;17.77;12.90;;;8.20;99.90;;;;;;4945088;29;20514;-61
2022/05/01 01:18:25;;;;;;;19.73;13.05;;;8.10;99.90;;;;;;4942958;29;20126;-62
2022/05/01 01:20:54;;;;;;;23.02;13.52;;;8.10;99.90;;;;;;4954216;28;20045;-62
2022/05/01 01:23:21;;;;;;;21.48;13.48;;;8.10;99.90;;;;;;4948561;28;20450;-62
2022/05/01 01:25:48;;;;;;;21.45;14.07;;;8.20;99.90;;;;;;4944699;29;20043;-62
2022/05/01 01:28:14;;;;;;;21.13;14.23;;;8.20;99.90;;;;;;4954003;28;20043;-62
2022/05/01 01:31:43;;;;;;;21.50;14.20;;;8.20;99.90;;;;;;4946900;29;21136;-62
2022/05/01 01:33:38;;;;;;;22.55;14.68;;;8.20;99.90;;;;;;4937230;28;20146;-62
2022/05/01 01:36:04;;;;;;;19.00;13.18;;;8.10;99.90;;;;;;4952449;29;20075;-61
2022/05/01 01:38:30;;;;;;;22.17;13.20;;;8.10;99.90;;;;;;4944276;28;20050;-62
2022/05/01 01:40:58;;;;;;;19.70;13.15;;;8.10;99.90;;;;;;4941707;29;20070;-61
2022/05/01 01:43:27;;;;;;;20.42;13.50;;;8.10;99.90;;;;;;4952819;28;20513;-62
2022/05/01 01:45:53;;;;;;;21.00;13.25;;;8.10;99.90;;;;;;4953988;28;20494;-61
2022/05/01 01:48:20;;;;;;;18.75;13.45;;;8.10;99.90;;;;;;4946960;28;20042;-62
2022/05/01 01:51:02;;;;;;;22.23;14.55;;;8.00;99.90;;;;;;4953044;29;20453;-61
2022/05/01 01:53:29;;;;;;;22.40;14.63;;;8.10;99.90;;;;;;4953387;28;20035;-62
2022/05/01 01:55:57;;;;;;;21.25;14.60;;;8.00;99.90;;;;;;4939952;28;21386;-62
2022/05/01 01:58:23;;;;;;;21.42;14.20;;;8.00;99.90;;;;;;4943107;29;20102;-62
2022/05/01 02:00:50;;;;;;;24.10;14.80;;;8.00;99.90;;;;;;4953349;29;20421;-61
2022/05/01 02:03:15;;;;;;;24.52;15.32;;;8.00;99.90;;;;;;4949901;28;20043;-61
2022/05/01 02:05:42;;;;;;;19.70;14.27;;;7.90;99.90;;;;;;4947839;28;20492;-62
2022/05/01 02:08:08;;;;;;;23.27;14.82;;;7.90;99.90;;;;;;4953364;29;20043;-61
2022/05/01 02:10:34;;;;;;;21.63;14.45;;;7.90;99.90;;;;;;4953326;29;20453;-62
2022/05/01 02:13:00;;;;;;;23.42;15.15;;;7.90;99.90;;;;;;4937783;29;20055;-62
2022/05/01 02:15:30;;;;;;;23.10;15.52;;;7.80;99.90;;;;;;4945638;29;20509;-62
2022/05/01 02:17:58;;;;;;;22.52;15.30;;;7.80;99.90;;;;;;4953058;28;20382;-61
2022/05/01 02:20:24;;;;;;;23.02;15.68;;;7.90;99.90;;;;;;4950951;28;20043;-61
2022/05/01 02:22:50;;;;;;;23.95;15.65;;;7.90;99.90;;;;;;4947216;28;20042;-62
2022/05/01 02:25:15;;;;;;;26.60;16.80;;;7.90;99.90;;;;;;4953380;29;20035;-62
2022/05/01 02:27:41;;;;;;;25.02;16.42;;;7.90;99.90;;;;;;4953411;29;20049;-61
2022/05/01 02:30:08;;;;;;;23.00;16.20;;;7.90;99.90;;;;;;4948980;29;20122;-61
2022/05/01 02:32:38;;;;;;;24.13;15.70;;;7.90;99.90;;;;;;4952565;28;20034;-61
2022/05/01 02:35:08;;;;;;;23.85;16.73;;;7.90;99.90;;;;;;4934171;29;20035;-61
2022/05/01 02:37:34;;;;;;;27.25;17.52;;;7.90;99.90;;;;;;4931934;29;20075;-61
2022/05/01 02:40:00;;;;;;;25.23;15.98;;;7.90;99.90;;;;;;4952233;28;20521;-62
2022/05/01 02:42:25;;;;;;;25.67;16.63;;;7.90;99.90;;;;;;4952884;28;20047;-62
2022/05/01 02:44:51;;;;;;;23.85;15.57;;;7.80;99.90;;;;;;4951656;29;20126;-62
2022/05/01 02:47:16;;;;;;;23.33;15.35;;;7.80;99.90;;;;;;4938213;28;20502;-61
2022/05/01 02:49:42;;;;;;;26.23;15.65;;;7.70;99.90;;;;;;4951447;28;20504;-61
2022/05/01 02:52:09;;;;;;;24.45;16.13;;;7.70;99.90;;;;;;4956571;28;20047;-62
2022/05/01 02:54:34;;;;;;;26.70;16.75;;;7.70;99.90;;;;;;4947901;28;20039;-61
2022/05/01 02:57:00;;;;;;;26.30;16.08;;;7.70;99.90;;;;;;4947045;29;20101;-62
2022/05/01 02:59:26;;;;;;;26.17;16.33;;;7.70;99.90;;;;;;4956713;29;20047;-62
2022/05/01 03:01:52;;;;;;;23.85;16.02;;;7.70;99.90;;;;;;4952068;29;20543;-61
2022/05/01 03:04:17;;;;;;;24.17;16.17;;;7.70;99.90;;;;;;4955296;28;20507;-61
2022/05/01 03:06:43;;;;;;;27.35;16.67;;;7.80;99.90;;;;;;4955631;28;20043;-62
2022/05/01 03:09:09;;;;;;;27.70;17.40;;;7.80;99.90;;;;;;4956797;29;20043;-61
2022/05/01 03:11:37;;;;;;;26.70;17.10;;;7.80;99.90;;;;;;4951884;29;20886;-62
2022/05/01 03:14:03;;;;;;;29.60;17.38;;;7.80;99.90;;;;;;4947125;29;20035;-61
2022/05/01 03:16:29;;;;;;;23.10;15.82;;;7.80;99.90;;;;;;4956180;28;20051;-62
2022/05/01 03:24:24;;;;;;;27.45;17.77;;;7.80;99.90;;;;;;4955920;28;20047;-62
2022/05/01 03:26:49;;;;;;;28.08;16.00;;;7.80;99.90;;;;;;4946289;29;20039;-62
2022/05/01 03:29:16;;;;;;;27.33;15.98;;;7.80;99.90;;;;;;4943972;29;20043;-61
2022/05/01 03:31:41;;;;;;;23.23;15.45;;;7.70;99.90;;;;;;4955503;28;20039;-62
2022/05/01 03:34:07;;;;;;;29.48;16.58;;;7.70;99.90;;;;;;4956088;28;20442;-61
2022/05/01 03:36:33;;;;;;;23.88;15.52;;;7.70;99.90;;;;;;4943482;28;20122;-62
2022/05/01 03:38:59;;;;;;;26.95;16.20;;;7.70;99.90;;;;;;4950704;29;20031;-62
2022/05/01 03:41:28;;;;;;;23.20;15.75;;;7.70;99.90;;;;;;4955782;28;20062;-62
2022/05/01 03:43:54;;;;;;;24.45;16.35;;;7.70;99.90;;;;;;4954972;28;20536;-61
2022/05/01 03:46:23;;;;;;;25.02;16.13;;;7.60;99.90;;;;;;4948211;29;20059;-62
2022/05/01 03:48:50;;;;;;;28.48;15.73;;;7.60;99.90;;;;;;4950720;29;20044;-61
2022/05/01 03:51:16;;;;;;;25.25;16.38;;;7.60;99.90;;;;;;4955486;28;20074;-62
2022/05/01 03:53:42;;;;;;;27.60;16.92;;;7.60;99.90;;;;;;4935215;29;20071;-61
2022/05/01 03:56:08;;;;;;;25.77;16.27;;;7.60;99.90;;;;;;4940767;29;20114;-61
2022/05/01 03:58:34;;;;;;;25.90;16.00;;;7.60;99.90;;;;;;4951859;29;20047;-61
2022/05/01 04:00:59;;;;;;;29.15;16.85;;;7.60;99.90;;;;;;4953153;28;20394;-62
2022/05/01 04:03:25;;;;;;;26.00;16.15;;;7.60;99.90;;;;;;4949444;28;20043;-61
2022/05/01 04:05:52;;;;;;;27.10;17.35;;;7.60;99.90;;;;;;4943043;29;20075;-62
2022/05/01 04:08:18;;;;;;;27.48;16.35;;;7.60;99.90;;;;;;4951839;28;20043;-62
2022/05/01 04:10:45;;;;;;;26.70;16.48;;;7.60;99.90;;;;;;4946174;29;20051;-62
2022/05/01 04:13:12;;;;;;;25.27;16.85;;;7.60;99.90;;;;;;4954656;28;20106;-62
2022/05/01 04:15:38;;;;;;;26.48;17.48;;;7.60;99.90;;;;;;4955346;28;20249;-62
2022/05/01 04:18:08;;;;;;;25.30;15.80;;;7.60;99.90;;;;;;4947601;28;20706;-62
2022/05/01 04:20:37;;;;;;;26.70;16.95;;;7.70;99.90;;;;;;4950164;29;20458;-62
2022/05/01 04:23:04;;;;;;;26.98;17.15;;;7.70;99.90;;;;;;4947265;29;20042;-62
2022/05/01 04:25:30;;;;;;;28.40;17.45;;;7.70;99.90;;;;;;4947762;28;20062;-62
2022/05/01 04:28:15;;;;;;;24.88;16.52;;;7.70;99.90;;;;;;4948006;29;20126;-62
2022/05/01 04:30:41;;;;;;;26.63;17.27;;;7.70;99.90;;;;;;4954492;28;20050;-61
2022/05/01 04:33:09;;;;;;;26.60;16.25;;;7.70;99.90;;;;;;4954313;28;20065;-62
2022/05/01 04:35:38;;;;;;;28.10;16.60;;;7.70;99.90;;;;;;4940231;29;20055;-62
2022/05/01 04:38:16;;;;;;;25.63;16.10;;;7.70;99.90;;;;;;4947063;29;20043;-61
2022/05/01 04:40:46;;;;;;;27.98;16.58;;;7.70;99.90;;;;;;4947746;28;20042;-62
2022/05/01 04:43:20;;;;;;;24.80;16.55;;;7.70;99.90;;;;;;4935615;29;20064;-62
2022/05/01 04:45:48;;;;;;;25.38;16.50;;;7.70;99.90;;;;;;4944059;29;20387;-62
2022/05/01 04:48:15;;;;;;;26.52;16.08;;;7.80;99.90;;;;;;4954672;28;20458;-62
2022/05/01 04:50:41;;;;;;;26.10;16.63;;;7.80;99.90;;;;;;4954667;29;20227;-62
2022/05/01 04:53:09;;;;;;;26.52;16.95;;;7.80;99.90;;;;;;4942959;28;20154;-61
2022/05/01 04:55:36;;;;;;;29.75;17.13;;;7.80;99.90;;;;;;4946435;28;20062;-62
2022/05/01 04:58:02;;;;;;;26.63;17.02;;;7.90;99.90;;;;;;4954691;29;20067;-61
2022/05/01 05:00:28;;;;;;;30.58;16.77;;;7.90;99.90;;;;;;4943656;28;20047;-62
2022/05/01 05:02:54;;;;;;;26.83;17.58;;;7.90;99.90;;;;;;4949072;28;20081;-61
2022/05/01 05:05:21;;;;;;;28.58;18.08;;;7.90;99.90;;;;;;4950992;28;20043;-61
2022/05/01 05:07:47;;;;;;;28.67;17.83;;;7.90;99.90;;;;;;4943772;29;20039;-61
2022/05/01 05:10:14;;;;;;;27.60;17.05;;;7.90;99.90;;;;;;4947034;29;20103;-60
2022/05/01 05:12:44;;;;;;;32.00;18.17;;;7.90;99.90;;;;;;4949522;28;20035;-61
2022/05/01 05:15:16;;;;;;;29.48;18.25;;;7.90;99.90;;;;;;4945388;28;20094;-61
2022/05/01 05:17:42;;;;;;;;;;;8.00;99.90;;;;;;4937913;29;20506;-61
2022/05/01 05:20:09;;;;;;;27.42;16.67;;;8.00;99.90;;;;;;4949849;28;19922;-61
2022/05/01 05:22:35;;;;;;;25.00;17.20;;;8.00;99.90;;;;;;4950320;28;20047;-61
2022/05/01 05:25:02;;;;;;;30.13;17.35;;;8.00;99.90;;;;;;4941542;29;20031;-61
2022/05/01 05:27:27;;;;;;;28.40;16.70;;;8.00;99.90;;;;;;4945602;29;20043;-61
2022/05/01 05:29:57;;;;;;;30.55;18.02;;;8.00;99.90;;;;;;4950283;29;20039;-61
2022/05/01 05:32:24;;;;;;;26.02;17.83;;;8.10;99.90;;;;;;4943053;28;20055;-61
2022/05/01 05:34:51;;;;;;;28.58;18.33;;;8.10;99.90;;;;;;4940463;29;20051;-61
2022/05/01 05:37:18;;;;;;;28.17;17.35;;;8.10;99.90;;;;;;4949762;29;20047;-61
2022/05/01 05:39:44;;;;;;;30.15;18.27;;;8.20;99.90;;;;;;4950394;29;20513;-61
2022/05/01 05:42:10;;;;;;;28.35;17.15;;;8.20;99.90;;;;;;4942212;28;20131;-61
2022/05/01 05:44:36;;;;;;;30.05;18.42;;;8.30;99.90;;;;;;4946036;29;20159;-61
2022/05/01 05:47:02;;;;;;;29.48;17.17;;;8.30;99.90;;;;;;4950305;28;20093;-61
2022/05/01 05:49:28;;;;;;;28.85;17.10;;;8.30;99.90;;;;;;4943868;28;20059;-61
2022/05/01 05:51:54;;;;;;;35.58;16.85;;;8.40;99.90;;;;;;4949646;28;20042;-61
2022/05/01 05:54:20;;;;;;;29.50;17.85;;;8.40;99.90;;;;;;4949548;28;20046;-61
2022/05/01 05:56:45;;;;;;;27.77;17.00;;;8.40;99.90;;;;;;4944998;29;20051;-61
2022/05/01 05:59:11;;;;;;;33.35;17.73;;;8.50;99.90;;;;;;4946207;28;20039;-61
2022/05/01 06:04:05;;;;;;;28.55;17.30;;;8.50;99.90;;;;;;4935214;29;20055;-60
2022/05/01 06:06:31;;;;;;;31.52;17.33;;;8.60;99.90;;;;;;4929715;29;20047;-63
2022/05/01 06:08:56;;;;;;;27.13;16.65;;;8.60;99.90;;;;;;4929314;29;20041;-61
2022/05/01 06:11:22;;;;;;;28.52;17.27;;;8.60;99.90;;;;;;4942007;29;20039;-60
2022/05/01 06:13:47;;;;;;;28.70;16.75;;;8.70;99.90;;;;;;4943601;28;20035;-62
2022/05/01 06:16:13;;;;;;;25.35;16.55;;;8.70;99.90;;;;;;4941699;29;20047;-63
2022/05/01 06:18:38;;;;;;;25.40;16.48;;;8.70;99.90;;;;;;4948965;29;20054;-58
2022/05/01 06:21:04;;;;;;;25.55;16.52;;;8.80;99.90;;;;;;4949275;29;20085;-61
2022/05/01 06:23:30;;;;;;;26.77;16.67;;;8.80;99.90;;;;;;4938405;28;20051;-60
2022/05/01 06:25:56;;;;;;;28.85;16.50;;;8.90;99.90;;;;;;4943961;29;20098;-61
2022/05/01 06:28:22;;;;;;;27.23;16.35;;;8.90;99.90;;;;;;4954824;28;20039;-62
2022/05/01 06:30:49;;;;;;;25.58;16.08;;;9.00;99.90;;;;;;4950290;29;20035;-63
2022/05/01 06:33:17;;;;;;;25.45;17.52;;;9.10;99.90;;;;;;4956179;28;20110;-60
2022/05/01 06:35:44;;;;;;;26.65;16.23;;;9.20;99.90;;;;;;4957154;28;20043;-61
2022/05/01 06:38:10;;;;;;;24.98;15.27;;;9.30;99.90;;;;;;4949011;28;20546;-60
2022/05/01 06:40:37;;;;;;;23.60;15.10;;;9.40;99.90;;;;;;4946545;29;20477;-60
2022/05/01 06:43:03;;;;;;;24.23;15.55;;;9.40;99.90;;;;;;4947881;29;20102;-60
2022/05/01 06:45:29;;;;;;;25.30;15.35;;;9.50;99.90;;;;;;4956998;28;20122;-60
2022/05/01 06:47:54;;;;;;;22.73;14.63;;;9.50;99.90;;;;;;4952795;28;20134;-62
2022/05/01 06:50:20;;;;;;;22.27;15.10;;;9.60;99.90;;;;;;4939439;29;20058;-61
2022/05/01 06:52:46;;;;;;;22.80;15.38;;;9.70;99.90;;;;;;4954083;28;20043;-61
2022/05/01 06:55:13;;;;;;;23.35;13.95;;;9.70;99.90;;;;;;4952072;29;20046;-60
2022/05/01 06:57:39;;;;;;;21.73;15.23;;;9.80;99.90;;;;;;4942589;29;20056;-59
2022/05/01 07:00:06;;;;;;;21.25;14.45;;;9.80;99.90;;;;;;4955799;29;20042;-59
2022/05/01 07:02:31;;;;;;;20.67;14.82;;;9.80;99.90;;;;;;4956461;28;20043;-58
2022/05/01 07:04:57;;;;;;;22.35;14.55;;;9.80;99.90;;;;;;4941967;29;20046;-61
2022/05/01 07:07:22;;;;;;;22.13;13.98;;;9.90;99.90;;;;;;4950877;29;20050;-62
2022/05/01 07:09:48;;;;;;;22.52;14.40;;;9.90;99.90;;;;;;4952969;28;20051;-60
2022/05/01 07:12:13;;;;;;;20.50;13.88;;;10.10;99.90;;;;;;4945836;28;20049;-60
2022/05/01 07:14:39;;;;;;;23.10;14.15;;;10.20;99.90;;;;;;4940754;29;20075;-60
2022/05/01 07:17:04;;;;;;;20.85;14.07;;;10.30;99.90;;;;;;4952075;29;20628;-61
2022/05/01 07:19:30;;;;;;;21.38;14.55;;;10.30;99.90;;;;;;4952768;29;20055;-58
2022/05/01 07:21:55;;;;;;;24.25;14.68;;;10.40;99.90;;;;;;4945046;29;20054;-60
2022/05/01 07:24:21;;;;;;;21.02;13.40;;;10.40;99.90;;;;;;4945220;29;20035;-57
2022/05/01 07:26:47;;;;;;;22.00;13.93;;;10.50;99.90;;;;;;4952206;28;20130;-61
2022/05/01 07:29:12;;;;;;;21.38;13.55;;;10.60;99.90;;;;;;4943008;28;20097;-61
2022/05/01 07:31:38;;;;;;;19.60;13.52;;;10.70;99.90;;;;;;4941455;29;20074;-62
2022/05/01 07:34:04;;;;;;;18.98;12.88;;;10.80;99.90;;;;;;4951913;29;20478;-59
2022/05/01 07:36:30;;;;;;;22.77;14.15;;;10.80;99.90;;;;;;4951436;28;20050;-61
2022/05/01 07:38:57;;;;;;;19.20;13.18;;;10.80;99.90;;;;;;4940066;29;20043;-63
2022/05/01 07:41:23;;;;;;;18.00;13.05;;;10.90;99.90;;;;;;4951688;28;20498;-61
2022/05/01 07:43:48;;;;;;;21.30;14.35;;;11.00;99.90;;;;;;4950260;29;20138;-58
2022/05/01 07:46:14;;;;;;;20.90;14.32;;;11.10;99.90;;;;;;4943736;29;20114;-61
2022/05/01 07:48:40;;;;;;;18.77;13.85;;;11.10;99.90;;;;;;4951474;28;20110;-61
2022/05/01 07:51:06;;;;;;;21.38;14.30;;;11.20;99.90;;;;;;4952009;28;20094;-62
2022/05/01 07:53:35;;;;;;;21.13;14.50;;;11.30;99.90;;;;;;4951453;28;20085;-61
2022/05/01 07:56:00;;;;;;;21.10;15.07;;;11.40;99.90;;;;;;4937872;28;20505;-60
2022/05/01 07:58:28;;;;;;;23.20;15.25;;;11.40;99.90;;;;;;4948614;29;20052;-60
2022/05/01 08:00:54;;;;;;;20.52;15.23;;;11.50;99.90;;;;;;4947655;28;20043;-63
2022/05/01 08:06:04;;;;;;;23.50;15.68;;;11.70;99.90;;;;;;4937667;29;20035;-62
2022/05/01 08:08:33;;;;;;;20.75;14.75;;;11.90;99.90;;;;;;4951027;29;20494;-61
2022/05/01 08:11:00;;;;;;;22.05;14.52;;;12.00;99.90;;;;;;4945137;28;20054;-61
2022/05/01 08:13:26;;;;;;;23.50;16.13;;;12.10;99.90;;;;;;4954067;28;20035;-61
2022/05/01 08:15:51;;;;;;;20.02;15.02;;;12.00;99.90;;;;;;4954136;28;20090;-60
2022/05/01 08:21:08;;;;;;;19.92;14.25;;;12.10;99.90;;;;;;4948240;29;20438;-62
2022/05/01 08:23:34;;;;;;;20.90;15.13;;;12.20;99.90;;;;;;4953296;28;20134;-61
2022/05/01 08:26:02;;;;;;;20.02;15.02;;;12.30;99.90;;;;;;4954395;29;20058;-61
2022/05/01 08:28:32;;;;;;;21.90;14.85;;;12.40;99.90;;;;;;4942497;28;20050;-61
2022/05/01 08:30:59;;;;;;;21.50;14.65;;;12.50;99.90;;;;;;4953922;29;20046;-61
2022/05/01 08:33:25;;;;;;;17.65;13.30;;;12.60;99.90;;;;;;4953984;28;20043;-63
2022/05/01 08:35:50;;;;;;;20.35;12.43;;;12.70;99.90;;;;;;4926553;29;20047;-63
2022/05/01 08:38:16;;;;;;;20.08;12.93;;;12.80;99.90;;;;;;4946726;29;20118;-62
2022/05/01 08:40:47;;;;;;;21.05;12.80;;;12.80;99.90;;;;;;4952745;29;20039;-62
2022/05/01 08:43:15;;;;;;;18.83;13.23;;;13.00;99.90;;;;;;4952652;28;20506;-63
2022/05/01 08:45:52;;;;;;;18.90;13.68;;;12.90;99.90;;;;;;4947972;29;20050;-64
2022/05/01 08:48:58;;;;;;;21.58;13.90;;;13.00;99.90;;;;;;4951976;28;20255;-64
2022/05/01 08:51:25;;;;;;;14.25;10.18;;;12.90;99.90;;;;;;4953020;28;20046;-64
2022/05/01 08:53:54;;;;;;;17.02;11.18;;;12.80;99.90;;;;;;4939497;28;20047;-63
2022/05/01 08:56:21;;;;;;;13.80;10.60;;;12.90;99.90;;;;;;4947873;29;20054;-63
2022/05/01 08:58:47;;;;;;;15.73;11.57;;;12.70;99.90;;;;;;4954288;28;20090;-63
2022/05/01 09:01:14;;;;;;;17.08;11.68;;;12.80;99.90;;;;;;4946815;29;20075;-63
2022/05/01 09:03:43;;;;;;;15.95;12.45;;;12.70;99.90;;;;;;4953404;28;20044;-65
2022/05/01 09:06:09;;;;;;;16.42;12.32;;;12.80;99.90;;;;;;4959857;28;20465;-62
2022/05/01 09:08:37;;;;;;;17.90;11.25;;;12.90;99.90;;;;;;4948286;29;20500;-63
2022/05/01 09:13:48;;;;;;;15.05;10.52;;;12.90;99.90;;;;;;4953734;28;20601;-63
2022/05/01 09:16:14;;;;;;;17.77;11.70;;;13.00;99.90;;;;;;4951059;28;20490;-67
2022/05/01 09:18:44;;;;;;;17.23;11.23;;;13.10;99.90;;;;;;4944012;28;20047;-63
2022/05/01 09:21:10;;;;;;;18.95;10.60;;;13.10;99.90;;;;;;4954280;29;20039;-65
2022/05/01 09:23:47;;;;;;;16.45;10.70;;;13.10;99.90;;;;;;4953657;28;20035;-63
2022/05/01 09:26:18;;;;;;;14.45;10.73;;;13.10;99.90;;;;;;4939619;28;20043;-63
2022/05/01 09:28:47;;;;;;;;;;;13.20;99.90;;;;;;4953731;28;20684;-62
2022/05/01 09:31:13;;;;;;;15.82;11.35;;;13.20;99.90;;;;;;4954019;28;19918;-63
2022/05/01 09:33:39;;;;;;;19.38;12.05;;;13.30;99.90;;;;;;4953661;28;20062;-63
2022/05/01 09:36:05;;;;;;;16.58;11.75;;;13.40;99.90;;;;;;4948409;28;20170;-63
2022/05/01 09:38:30;;;;;;;16.60;10.70;;;13.50;99.90;;;;;;4950927;29;20138;-63
2022/05/01 09:40:58;;;;;;;14.40;10.90;;;13.60;99.90;;;;;;4953877;28;20039;-64
2022/05/01 09:43:34;;;;;;;12.50;9.50;;;13.70;99.90;;;;;;4936983;28;20028;-63
2022/05/01 09:46:20;;;;;;;14.55;10.48;;;13.80;99.90;;;;;;4946359;29;20035;-63
2022/05/01 09:49:05;;;;;;;13.10;10.05;;;13.90;99.90;;;;;;4953436;28;20520;-63
2022/05/01 09:51:36;;;;;;;13.75;10.18;;;14.10;99.90;;;;;;4953844;29;20043;-63
2022/05/01 09:54:03;;;;;;;14.77;11.55;;;14.30;99.90;;;;;;4943825;29;20502;-63
2022/05/01 09:56:51;;;;;;;13.65;10.65;;;14.50;99.90;;;;;;4953249;28;20051;-63
2022/05/01 09:59:21;;;;;;;14.90;10.68;;;14.80;99.90;;;;;;4943944;28;20321;-63
2022/05/01 10:02:04;;;;;;;15.17;9.77;;;14.80;99.90;;;;;;4952821;28;20074;-64
2022/05/01 10:04:35;;;;;;;12.95;10.15;;;15.10;99.90;;;;;;4953286;28;20545;-63
2022/05/01 10:07:02;;;;;;;13.02;10.15;;;15.10;99.90;;;;;;4949047;29;20414;-64
2022/05/01 10:09:30;;;;;;;12.85;9.43;;;15.20;99.90;;;;;;4950605;29;20043;-63
2022/05/01 10:12:03;;;;;;;11.90;8.60;;;15.30;99.90;;;;;;4953092;28;20043;-63
2022/05/01 10:14:29;;;;;;;10.45;9.10;;;15.30;99.90;;;;;;4953260;28;20455;-63
2022/05/01 10:16:55;;;;;;;13.13;9.60;;;15.20;99.90;;;;;;4941545;29;20091;-63
2022/05/01 10:19:25;;;;;;;11.50;8.75;;;15.40;99.90;;;;;;4949001;28;20082;-63
2022/05/01 10:21:59;;;;;;;16.05;8.23;;;15.40;99.80;;;;;;4953254;28;20454;-63
2022/05/01 10:24:25;;;;;;;14.35;7.93;;;15.30;99.90;;;;;;4952675;28;20561;-62
2022/05/01 10:27:00;;;;;;;9.38;7.82;;;15.40;99.90;;;;;;4940303;28;20134;-63
2022/05/01 10:32:45;;;;;;;12.77;7.53;;;15.50;99.20;;;;;;4931614;29;20047;-63
2022/05/01 10:35:25;;;;;;;10.00;6.97;;;15.40;99.90;;;;;;4938257;29;20047;-63
2022/05/01 10:38:17;;;;;;;12.50;8.00;;;15.50;99.90;;;;;;4952970;28;20051;-63
2022/05/01 10:40:45;;;;;;;10.65;8.23;;;15.50;99.90;;;;;;4952985;28;20035;-65
2022/05/01 10:43:37;;;;;;;10.07;7.68;;;15.60;99.90;;;;;;4947978;28;20067;-64
2022/05/01 10:46:21;;;;;;;10.75;6.43;;;15.70;95.60;;;;;;4945412;29;20490;-63
2022/05/01 10:48:48;;;;;;;10.40;7.40;;;15.70;96.00;;;;;;4948226;29;20035;-63
2022/05/01 10:51:36;;;;;;;11.20;7.07;;;15.70;99.90;;;;;;4944216;29;20039;-63
2022/05/01 10:54:10;;;;;;;8.68;6.25;;;15.90;99.10;;;;;;4945148;29;20051;-63
2022/05/01 10:56:41;;;;;;;8.00;6.28;;;15.90;95.80;;;;;;4952925;28;20046;-63
2022/05/01 10:59:34;;;;;;;8.75;6.63;;;16.10;99.10;;;;;;4947892;29;20035;-65
2022/05/01 11:02:03;;;;;;;7.72;5.70;;;16.00;93.70;;;;;;4950100;28;20051;-63
2022/05/01 11:04:36;;;;;;;9.38;6.63;;;16.00;97.50;;;;;;4952834;28;20044;-63
2022/05/01 11:07:03;;;;;;;10.27;5.85;;;16.30;96.80;;;;;;4944140;28;20067;-63
2022/05/01 11:09:34;;;;;;;7.53;5.47;;;16.40;97.90;;;;;;4952459;28;20513;-64
2022/05/01 11:12:00;;;;;;;6.97;5.72;;;16.70;96.60;;;;;;4955498;28;20044;-64
2022/05/01 11:14:33;;;;;;;7.18;5.50;;;16.80;97.50;;;;;;4953343;28;20043;-63
2022/05/01 11:16:59;;;;;;;8.38;5.60;;;16.20;80.40;;;;;;4944581;29;20043;-63
2022/05/01 11:19:28;;;;;;;10.43;6.10;;;15.80;93.10;;;;;;4956227;28;20163;-64
2022/05/01 11:21:55;;;;;;;8.30;5.53;;;15.50;95.50;;;;;;4953276;28;20553;-63
2022/05/01 11:24:43;;;;;;;7.43;5.78;;;15.60;94.70;;;;;;4951534;28;20035;-63
2022/05/01 11:27:14;;;;;;;6.57;4.82;;;15.80;93.70;;;;;;4956274;28;20282;-63
2022/05/01 11:30:06;;;;;;;7.82;5.32;;;15.80;92.60;;;;;;4956103;28;20494;-64
2022/05/01 11:32:48;;;;;;;6.97;5.72;;;16.10;91.40;;;;;;4947520;28;20090;-64
2022/05/01 11:35:14;;;;;;;7.93;5.30;;;16.30;91.60;;;;;;4950089;29;20085;-64
2022/05/01 11:37:48;;;;;;;7.15;5.70;;;16.40;95.00;;;;;;4956303;28;20070;-64
2022/05/01 11:40:23;;;;;;;6.85;5.28;;;16.30;91.40;;;;;;4944987;28;20109;-64
2022/05/01 11:42:50;;;;;;;7.10;5.05;;;16.10;84.10;;;;;;4954998;28;20035;-64
2022/05/01 11:45:18;;;;;;;7.30;5.53;;;16.20;88.90;;;;;;4955940;28;20039;-64
2022/05/01 11:47:48;;;;;;;6.35;5.40;;;16.00;93.00;;;;;;4948179;28;20051;-64
2022/05/01 11:50:18;;;;;;;7.70;5.70;;;16.20;91.40;;;;;;4946092;28;20090;-64
2022/05/01 11:52:49;;;;;;;7.55;5.40;;;16.40;92.00;;;;;;4955194;28;20039;-63
2022/05/01 11:55:18;;;;;;;8.38;5.63;;;16.30;92.20;;;;;;4949093;28;20584;-63
2022/05/01 12:03:39;;;;;;;8.90;5.20;;;16.70;93.70;;;;;;4973661;23;20137;-63
2022/05/01 12:06:04;;;;;;;6.20;4.90;;;16.60;92.00;;;;;;4964009;28;20123;-65
2022/05/01 12:08:30;;;;;;;7.03;5.25;;;16.80;94.20;;;;;;4973815;28;20390;-64
2022/05/01 12:10:55;;;;;;;8.25;5.72;;;16.90;93.80;;;;;;4974527;28;20039;-65
2022/05/01 12:13:27;;;;;;;7.25;5.50;;;16.80;93.00;;;;;;4947805;28;20095;-63
2022/05/01 12:15:53;;;;;;;6.93;5.50;;;16.80;86.50;;;;;;4940919;29;20047;-63
2022/05/01 12:18:20;;;;;;;7.53;5.78;;;16.80;91.60;;;;;;4951591;28;20046;-64
2022/05/01 12:20:46;;;;;;;7.85;5.70;;;16.90;92.40;;;;;;4954943;28;20476;-64
2022/05/01 12:23:17;;;;;;;7.85;5.75;;;16.90;92.80;;;;;;4949931;28;20035;-66
2022/05/01 12:25:46;;;;;;;6.95;4.47;;;17.00;88.70;;;;;;4942886;29;20051;-65
2022/05/01 12:28:13;;;;;;;6.72;4.80;;;17.00;88.00;;;;;;4954146;28;20046;-63
2022/05/01 12:30:42;;;;;;;7.38;4.90;;;17.10;92.10;;;;;;4947942;28;20039;-63
2022/05/01 12:33:17;;;;;;;10.82;5.13;;;17.10;86.90;;;;;;4953385;28;20055;-63
2022/05/01 12:35:55;;;;;;;5.70;4.57;;;16.80;75.00;;;;;;4955266;28;20053;-64
2022/05/01 12:38:22;;;;;;;6.22;4.45;;;16.70;83.00;;;;;;4942262;28;20133;-64
2022/05/01 12:43:51;;;;;;;7.30;5.13;;;16.50;77.40;;;;;;4913707;29;20040;-64
2022/05/01 12:46:21;;;;;;;6.22;5.13;;;16.60;68.60;;;;;;4932096;29;20058;-64
2022/05/01 12:48:47;;;;;;;7.03;4.70;;;16.50;68.20;;;;;;4948748;29;20377;-64
2022/05/01 12:51:13;;;;;;;7.88;4.93;;;16.60;73.80;;;;;;4954823;28;20080;-64
2022/05/01 12:53:39;;;;;;;7.35;5.40;;;16.80;79.20;;;;;;4954385;28;20121;-64
2022/05/01 12:56:20;;;;;;;9.25;5.43;;;16.80;84.30;;;;;;4943559;28;20067;-64
2022/05/01 12:58:47;;;;;;;7.07;5.82;;;16.80;71.50;;;;;;4952556;28;20449;-64
2022/05/01 13:01:24;;;;;;;6.75;5.38;;;16.70;77.90;;;;;;4954874;29;20043;-64
2022/05/01 13:03:50;;;;;;;6.88;5.35;;;16.60;69.30;;;;;;4949383;28;20066;-64
2022/05/01 13:06:18;;;;;;;8.40;5.78;;;16.50;75.90;;;;;;4954637;28;20035;-64
2022/05/01 13:08:52;;;;;;;6.85;5.13;;;16.60;81.50;;;;;;4954079;28;20039;-64
2022/05/01 13:11:26;;;;;;;8.82;5.00;;;16.70;66.20;;;;;;4947651;29;20447;-64
2022/05/01 13:14:00;;;;;;;5.80;4.60;;;16.70;68.70;;;;;;4945028;29;20043;-64
2022/05/01 13:16:32;;;;;;;7.63;4.90;;;17.00;71.80;;;;;;4954199;28;20043;-64